MBW weather

Melbourne Moorabbin Airport
Melbourne, Victoria, Australia

Public forecast

Using degrees Celsius for public forecast. Weather courtesy of forecast.io.

METAR (pilot weather report)

Closest report is Melbourne Essendon Airport, 17.6 nm (32.7 km) NNW. Retrieved 2018/11/19 14:00 UTC (7 minutes ago):

YMEN 191400Z AUTO 36007KT 9999 // NCD 22/07 Q1008

TAF (pilot weather forecast)

Forecast is more than 12 hours old.

Closest forecast is Melbourne International Airport, 21.9 nm (40.6 km) NW. Retrieved 2018/11/18 00:00 UTC (2 days ago):

TAF YMML 182309Z 1900/2006 01020G34KT CAVOK FM190100 02015G25KT CAVOK FM190400 03014KT CAVOK FM191500 01017G34KT CAVOK FM191900 01022G42KT 9999 -SHRA NSC FM200400 02016G30KT 9999 SHRA SCT050 PROB30 INTER 2003/2006 VRB25G45KT 2000 TSRA BKN010 SCT050CB